sensor_id;sensor_type;location;lat;lon;timestamp;pressure;altitude;pressure_sealevel;temperature;humidity
55468;BME280;41332;42.702;23.200;2023-07-20T00:01:11;93670.81;;;19.93;74.95
55468;BME280;41332;42.702;23.200;2023-07-20T00:03:37;93662.00;;;19.97;74.30
55468;BME280;41332;42.702;23.200;2023-07-20T00:06:02;93672.69;;;19.97;75.09
55468;BME280;41332;42.702;23.200;2023-07-20T00:08:29;93670.00;;;20.00;74.24
55468;BME280;41332;42.702;23.200;2023-07-20T00:10:55;93667.75;;;19.91;74.57
55468;BME280;41332;42.702;23.200;2023-07-20T00:13:20;93671.53;;;19.98;73.04
55468;BME280;41332;42.702;23.200;2023-07-20T00:15:46;93669.59;;;20.05;72.36
55468;BME280;41332;42.702;23.200;2023-07-20T00:18:12;93681.78;;;20.06;71.71
55468;BME280;41332;42.702;23.200;2023-07-20T00:20:37;93674.09;;;20.12;71.29
55468;BME280;41332;42.702;23.200;2023-07-20T00:23:03;93686.66;;;20.15;71.36
55468;BME280;41332;42.702;23.200;2023-07-20T00:25:29;93682.81;;;20.20;73.76
55468;BME280;41332;42.702;23.200;2023-07-20T00:27:54;93684.44;;;20.03;76.85
55468;BME280;41332;42.702;23.200;2023-07-20T00:30:20;93683.94;;;19.37;81.43
55468;BME280;41332;42.702;23.200;2023-07-20T00:32:45;93677.41;;;19.56;80.93
55468;BME280;41332;42.702;23.200;2023-07-20T00:35:11;93684.59;;;19.70;80.21
55468;BME280;41332;42.702;23.200;2023-07-20T00:37:38;93681.91;;;19.74;80.06
55468;BME280;41332;42.702;23.200;2023-07-20T00:40:04;93686.06;;;19.79;78.51
55468;BME280;41332;42.702;23.200;2023-07-20T00:42:30;93680.00;;;19.78;79.60
55468;BME280;41332;42.702;23.200;2023-07-20T00:44:55;93686.09;;;19.82;79.37
55468;BME280;41332;42.702;23.200;2023-07-20T00:47:21;93679.66;;;19.69;77.94
55468;BME280;41332;42.702;23.200;2023-07-20T00:49:46;93690.84;;;19.31;81.32
55468;BME280;41332;42.702;23.200;2023-07-20T00:52:13;93683.94;;;19.37;78.74
55468;BME280;41332;42.702;23.200;2023-07-20T00:54:40;93682.78;;;19.46;77.40
55468;BME280;41332;42.702;23.200;2023-07-20T00:57:07;93674.00;;;19.52;78.81
55468;BME280;41332;42.702;23.200;2023-07-20T00:59:35;93678.53;;;19.59;78.30
55468;BME280;41332;42.702;23.200;2023-07-20T01:02:02;93677.78;;;19.62;77.58
55468;BME280;41332;42.702;23.200;2023-07-20T01:04:27;93669.75;;;19.66;75.93
55468;BME280;41332;42.702;23.200;2023-07-20T01:07:46;93678.47;;;19.77;77.47
55468;BME280;41332;42.702;23.200;2023-07-20T01:12:52;93675.41;;;19.79;78.45
55468;BME280;41332;42.702;23.200;2023-07-20T01:15:17;93672.75;;;19.79;78.35
55468;BME280;41332;42.702;23.200;2023-07-20T01:17:43;93673.53;;;19.79;78.15
55468;BME280;41332;42.702;23.200;2023-07-20T01:20:13;93673.13;;;19.84;77.63
55468;BME280;41332;42.702;23.200;2023-07-20T01:23:01;93672.00;;;19.82;77.62
55468;BME280;41332;42.702;23.200;2023-07-20T01:28:37;93676.56;;;19.85;76.84
55468;BME280;41332;42.702;23.200;2023-07-20T01:33:40;93678.88;;;19.72;76.99
55468;BME280;41332;42.702;23.200;2023-07-20T01:36:07;93666.34;;;19.62;77.44
55468;BME280;41332;42.702;23.200;2023-07-20T01:38:33;93679.66;;;19.69;76.53
55468;BME280;41332;42.702;23.200;2023-07-20T01:40:58;93676.59;;;19.70;75.85
55468;BME280;41332;42.702;23.200;2023-07-20T01:43:24;93660.69;;;19.52;76.70
55468;BME280;41332;42.702;23.200;2023-07-20T01:45:52;93668.72;;;19.45;77.79
55468;BME280;41332;42.702;23.200;2023-07-20T01:48:17;93672.88;;;19.50;77.21
55468;BME280;41332;42.702;23.200;2023-07-20T01:50:43;93672.88;;;19.53;76.54
55468;BME280;41332;42.702;23.200;2023-07-20T01:53:08;93670.63;;;19.48;76.21
55468;BME280;41332;42.702;23.200;2023-07-20T01:55:34;93667.56;;;19.46;76.81
55468;BME280;41332;42.702;23.200;2023-07-20T01:57:59;93675.94;;;19.44;76.45
55468;BME280;41332;42.702;23.200;2023-07-20T02:00:26;93663.78;;;19.43;77.02
55468;BME280;41332;42.702;23.200;2023-07-20T02:02:51;93670.28;;;19.39;76.83
55468;BME280;41332;42.702;23.200;2023-07-20T02:05:17;93662.69;;;19.34;76.22
55468;BME280;41332;42.702;23.200;2023-07-20T02:07:42;93648.59;;;19.30;76.91
55468;BME280;41332;42.702;23.200;2023-07-20T02:10:08;93655.84;;;19.25;76.45
55468;BME280;41332;42.702;23.200;2023-07-20T02:12:34;93653.56;;;19.31;76.75
55468;BME280;41332;42.702;23.200;2023-07-20T02:14:59;93651.31;;;19.22;77.11
55468;BME280;41332;42.702;23.200;2023-07-20T02:17:25;93644.13;;;19.12;78.08
55468;BME280;41332;42.702;23.200;2023-07-20T02:19:52;93658.56;;;19.15;77.42
55468;BME280;41332;42.702;23.200;2023-07-20T02:22:18;93661.22;;;19.11;77.16
55468;BME280;41332;42.702;23.200;2023-07-20T02:24:43;93658.94;;;19.09;77.28
55468;BME280;41332;42.702;23.200;2023-07-20T02:27:09;93670.00;;;19.01;77.31
55468;BME280;41332;42.702;23.200;2023-07-20T02:29:34;93665.44;;;18.98;77.27
55468;BME280;41332;42.702;23.200;2023-07-20T02:32:01;93657.06;;;18.96;77.46
55468;BME280;41332;42.702;23.200;2023-07-20T02:34:26;93655.56;;;18.80;77.86
55468;BME280;41332;42.702;23.200;2023-07-20T02:36:51;93659.72;;;18.74;77.94
55468;BME280;41332;42.702;23.200;2023-07-20T02:39:17;93657.09;;;18.70;77.50
55468;BME280;41332;42.702;23.200;2023-07-20T02:41:42;93646.47;;;18.70;77.21
55468;BME280;41332;42.702;23.200;2023-07-20T02:44:08;93644.94;;;18.69;77.46
55468;BME280;41332;42.702;23.200;2023-07-20T02:46:33;93639.22;;;18.67;77.48
55468;BME280;41332;42.702;23.200;2023-07-20T02:49:00;93626.72;;;18.60;77.53
55468;BME280;41332;42.702;23.200;2023-07-20T02:51:25;93635.81;;;18.56;77.74
55468;BME280;41332;42.702;23.200;2023-07-20T02:53:51;93639.63;;;18.51;77.80
55468;BME280;41332;42.702;23.200;2023-07-20T02:56:16;93636.63;;;18.45;78.15
55468;BME280;41332;42.702;23.200;2023-07-20T02:58:43;93633.94;;;18.38;78.04
55468;BME280;41332;42.702;23.200;2023-07-20T03:01:09;93637.38;;;18.35;78.64
55468;BME280;41332;42.702;23.200;2023-07-20T03:03:36;93641.94;;;18.42;78.21
55468;BME280;41332;42.702;23.200;2023-07-20T03:06:07;93637.72;;;18.34;78.03
55468;BME280;41332;42.702;23.200;2023-07-20T03:08:34;93636.97;;;18.33;78.48
55468;BME280;41332;42.702;23.200;2023-07-20T03:11:01;93641.16;;;18.38;78.65
55468;BME280;41332;42.702;23.200;2023-07-20T03:13:26;93646.09;;;18.36;78.38
55468;BME280;41332;42.702;23.200;2023-07-20T03:15:52;93646.50;;;18.38;77.81
55468;BME280;41332;42.702;23.200;2023-07-20T03:18:18;93642.69;;;18.32;77.92
55468;BME280;41332;42.702;23.200;2023-07-20T03:20:43;93652.56;;;18.35;77.42
55468;BME280;41332;42.702;23.200;2023-07-20T03:23:08;93651.03;;;18.34;77.51
55468;BME280;41332;42.702;23.200;2023-07-20T03:25:34;93651.41;;;18.36;77.75
55468;BME280;41332;42.702;23.200;2023-07-20T03:28:02;93651.81;;;18.34;77.87
55468;BME280;41332;42.702;23.200;2023-07-20T03:30:28;93653.31;;;18.39;77.19
55468;BME280;41332;42.702;23.200;2023-07-20T03:32:53;93644.59;;;18.42;76.99
55468;BME280;41332;42.702;23.200;2023-07-20T03:35:18;93656.75;;;18.39;76.58
55468;BME280;41332;42.702;23.200;2023-07-20T03:37:44;93665.47;;;18.40;77.12
55468;BME280;41332;42.702;23.200;2023-07-20T03:40:09;93651.81;;;18.38;77.52
55468;BME280;41332;42.702;23.200;2023-07-20T03:42:35;93657.88;;;18.42;77.76
55468;BME280;41332;42.702;23.200;2023-07-20T03:45:01;93661.66;;;18.37;77.92
55468;BME280;41332;42.702;23.200;2023-07-20T03:47:29;93659.00;;;18.37;77.84
55468;BME280;41332;42.702;23.200;2023-07-20T03:49:55;93651.81;;;18.38;77.51
55468;BME280;41332;42.702;23.200;2023-07-20T03:52:20;93651.44;;;18.43;77.61
55468;BME280;41332;42.702;23.200;2023-07-20T03:54:45;93644.22;;;18.33;79.17
55468;BME280;41332;42.702;23.200;2023-07-20T03:57:11;93662.81;;;18.47;79.00
55468;BME280;41332;42.702;23.200;2023-07-20T03:59:37;93655.19;;;18.49;78.06
55468;BME280;41332;42.702;23.200;2023-07-20T04:02:02;93646.09;;;18.50;78.38
55468;BME280;41332;42.702;23.200;2023-07-20T04:04:30;93641.53;;;18.58;78.82
55468;BME280;41332;42.702;23.200;2023-07-20T04:06:56;93642.28;;;18.62;78.07
55468;BME280;41332;42.702;23.200;2023-07-20T04:09:21;93646.06;;;18.68;78.64
55468;BME280;41332;42.702;23.200;2023-07-20T04:11:47;93646.47;;;18.70;79.22
55468;BME280;41332;42.702;23.200;2023-07-20T04:14:12;93634.66;;;18.78;79.83
55468;BME280;41332;42.702;23.200;2023-07-20T04:16:37;93627.44;;;18.86;79.14
55468;BME280;41332;42.702;23.200;2023-07-20T04:19:03;93633.50;;;18.98;78.56
55468;BME280;41332;42.702;23.200;2023-07-20T04:21:28;93641.06;;;19.10;78.97
55468;BME280;41332;42.702;23.200;2023-07-20T04:23:54;93629.22;;;19.22;79.25
55468;BME280;41332;42.702;23.200;2023-07-20T04:26:19;93631.47;;;19.34;78.89
55468;BME280;41332;42.702;23.200;2023-07-20T04:28:45;93630.28;;;19.50;76.20
55468;BME280;41332;42.702;23.200;2023-07-20T04:31:14;93624.44;;;19.73;75.26
55468;BME280;41332;42.702;23.200;2023-07-20T04:33:40;93627.09;;;19.76;75.50
55468;BME280;41332;42.702;23.200;2023-07-20T04:36:06;93622.88;;;19.86;74.72
55468;BME280;41332;42.702;23.200;2023-07-20T04:38:32;93624.69;;;20.00;74.29
55468;BME280;41332;42.702;23.200;2023-07-20T04:40:58;93630.41;;;20.02;74.81
55468;BME280;41332;42.702;23.200;2023-07-20T04:43:23;93630.34;;;20.06;75.61
55468;BME280;41332;42.702;23.200;2023-07-20T04:45:48;93624.22;;;20.13;75.51
55468;BME280;41332;42.702;23.200;2023-07-20T04:48:16;93635.59;;;20.20;76.27
55468;BME280;41332;42.702;23.200;2023-07-20T04:50:42;93640.44;;;20.33;76.96
55468;BME280;41332;42.702;23.200;2023-07-20T04:53:09;93633.94;;;20.37;76.91
55468;BME280;41332;42.702;23.200;2023-07-20T04:55:35;93629.28;;;20.00;78.49
55468;BME280;41332;42.702;23.200;2023-07-20T04:58:02;93630.41;;;19.99;78.82
55468;BME280;41332;42.702;23.200;2023-07-20T05:00:29;93628.56;;;19.88;78.91
55468;BME280;41332;42.702;23.200;2023-07-20T05:02:55;93633.09;;;19.99;78.50
55468;BME280;41332;42.702;23.200;2023-07-20T05:05:20;93621.53;;;20.16;78.12
55468;BME280;41332;42.702;23.200;2023-07-20T05:07:45;93629.44;;;20.31;77.11
55468;BME280;41332;42.702;23.200;2023-07-20T05:10:11;93624.81;;;20.38;76.42
55468;BME280;41332;42.702;23.200;2023-07-20T05:12:36;93646.31;;;20.62;76.53
55468;BME280;41332;42.702;23.200;2023-07-20T05:15:03;93637.78;;;20.78;74.45
55468;BME280;41332;42.702;23.200;2023-07-20T05:17:28;93646.47;;;20.89;74.15
55468;BME280;41332;42.702;23.200;2023-07-20T05:19:54;93636.84;;;20.99;73.19
55468;BME280;41332;42.702;23.200;2023-07-20T05:22:20;93634.91;;;21.00;72.96
55468;BME280;41332;42.702;23.200;2023-07-20T05:24:45;93651.94;;;21.13;74.63
55468;BME280;41332;42.702;23.200;2023-07-20T05:27:10;93646.16;;;21.18;73.54
55468;BME280;41332;42.702;23.200;2023-07-20T05:29:36;93637.00;;;21.19;71.87
55468;BME280;41332;42.702;23.200;2023-07-20T05:32:01;93641.28;;;21.44;73.96
55468;BME280;41332;42.702;23.200;2023-07-20T05:34:28;93652.59;;;21.59;71.54
55468;BME280;41332;42.702;23.200;2023-07-20T05:36:53;93659.13;;;21.54;71.42
55468;BME280;41332;42.702;23.200;2023-07-20T05:39:19;93661.28;;;21.67;71.51
55468;BME280;41332;42.702;23.200;2023-07-20T05:41:44;93658.56;;;21.70;70.09
55468;BME280;41332;42.702;23.200;2023-07-20T05:44:09;93664.91;;;21.80;69.55
55468;BME280;41332;42.702;23.200;2023-07-20T05:46:35;93667.84;;;21.89;69.62
55468;BME280;41332;42.702;23.200;2023-07-20T05:49:00;93671.22;;;21.94;69.19
55468;BME280;41332;42.702;23.200;2023-07-20T05:51:27;93665.69;;;22.08;68.08
55468;BME280;41332;42.702;23.200;2023-07-20T05:53:52;93654.78;;;22.22;68.78
55468;BME280;41332;42.702;23.200;2023-07-20T05:56:18;93661.88;;;22.36;68.70
55468;BME280;41332;42.702;23.200;2023-07-20T05:58:43;93660.75;;;22.34;69.28
55468;BME280;41332;42.702;23.200;2023-07-20T06:01:08;93666.00;;;22.41;67.42
55468;BME280;41332;42.702;23.200;2023-07-20T06:03:34;93663.59;;;22.47;66.73
55468;BME280;41332;42.702;23.200;2023-07-20T06:06:03;93662.97;;;22.63;67.64
55468;BME280;41332;42.702;23.200;2023-07-20T06:08:30;93663.72;;;22.63;66.67
55468;BME280;41332;42.702;23.200;2023-07-20T06:10:56;93658.84;;;22.82;66.39
55468;BME280;41332;42.702;23.200;2023-07-20T06:13:21;93659.00;;;22.95;66.23
55468;BME280;41332;42.702;23.200;2023-07-20T06:15:47;93659.84;;;23.12;65.65
55468;BME280;41332;42.702;23.200;2023-07-20T06:18:13;93642.84;;;23.22;64.98
55468;BME280;41332;42.702;23.200;2023-07-20T06:20:38;93652.41;;;23.43;65.01
55468;BME280;41332;42.702;23.200;2023-07-20T06:23:04;93652.88;;;23.58;63.41
55468;BME280;41332;42.702;23.200;2023-07-20T06:25:29;93653.31;;;23.73;63.62
55468;BME280;41332;42.702;23.200;2023-07-20T06:27:55;93649.28;;;23.45;62.77
55468;BME280;41332;42.702;23.200;2023-07-20T06:30:21;93643.03;;;23.51;61.92
55468;BME280;41332;42.702;23.200;2023-07-20T06:32:47;93641.19;;;23.85;62.23
55468;BME280;41332;42.702;23.200;2023-07-20T06:35:13;93643.69;;;24.12;62.34
55468;BME280;41332;42.702;23.200;2023-07-20T06:37:38;93640.88;;;24.36;62.64
55468;BME280;41332;42.702;23.200;2023-07-20T06:40:04;93642.19;;;24.61;60.52
55468;BME280;41332;42.702;23.200;2023-07-20T06:42:30;93646.72;;;24.80;61.25
55468;BME280;41332;42.702;23.200;2023-07-20T06:44:56;93638.13;;;25.02;62.38
55468;BME280;41332;42.702;23.200;2023-07-20T06:47:22;93642.16;;;24.94;57.20
55468;BME280;41332;42.702;23.200;2023-07-20T06:49:48;93637.63;;;25.07;58.86
55468;BME280;41332;42.702;23.200;2023-07-20T06:52:13;93652.00;;;25.13;58.56
55468;BME280;41332;42.702;23.200;2023-07-20T06:54:38;93660.94;;;25.10;57.87
55468;BME280;41332;42.702;23.200;2023-07-20T06:57:04;93663.31;;;25.08;58.90
55468;BME280;41332;42.702;23.200;2023-07-20T06:59:30;93661.16;;;25.16;59.36
55468;BME280;41332;42.702;23.200;2023-07-20T07:01:55;93668.81;;;25.17;57.72
55468;BME280;41332;42.702;23.200;2023-07-20T07:04:21;93681.22;;;25.28;56.51
55468;BME280;41332;42.702;23.200;2023-07-20T07:06:46;93680.50;;;25.40;57.13
55468;BME280;41332;42.702;23.200;2023-07-20T07:09:12;93687.50;;;25.38;56.60
55468;BME280;41332;42.702;23.200;2023-07-20T07:11:37;93697.13;;;25.52;57.05
55468;BME280;41332;42.702;23.200;2023-07-20T07:14:03;93702.53;;;25.64;57.58
55468;BME280;41332;42.702;23.200;2023-07-20T07:16:28;93710.03;;;25.99;58.62
55468;BME280;41332;42.702;23.200;2023-07-20T07:18:53;93713.16;;;26.23;56.25
55468;BME280;41332;42.702;23.200;2023-07-20T07:21:19;93714.69;;;26.37;55.63
55468;BME280;41332;42.702;23.200;2023-07-20T07:23:45;93715.56;;;26.47;55.58
55468;BME280;41332;42.702;23.200;2023-07-20T07:26:11;93712.84;;;26.60;52.43
55468;BME280;41332;42.702;23.200;2023-07-20T07:28:36;93707.56;;;26.69;53.67
55468;BME280;41332;42.702;23.200;2023-07-20T07:31:04;93704.78;;;26.86;53.83
55468;BME280;41332;42.702;23.200;2023-07-20T07:33:30;93701.13;;;26.79;53.51
55468;BME280;41332;42.702;23.200;2023-07-20T07:35:56;93705.88;;;26.75;52.32
55468;BME280;41332;42.702;23.200;2023-07-20T07:38:21;93708.31;;;26.70;52.49
55468;BME280;41332;42.702;23.200;2023-07-20T07:40:46;93701.75;;;26.84;53.50
55468;BME280;41332;42.702;23.200;2023-07-20T07:43:12;93695.84;;;26.76;54.02
55468;BME280;41332;42.702;23.200;2023-07-20T07:45:39;93680.69;;;27.04;55.07
55468;BME280;41332;42.702;23.200;2023-07-20T07:48:05;93683.44;;;27.13;51.60
55468;BME280;41332;42.702;23.200;2023-07-20T07:50:31;93689.56;;;27.14;52.67
55468;BME280;41332;42.702;23.200;2023-07-20T07:52:56;93701.53;;;27.26;53.70
55468;BME280;41332;42.702;23.200;2023-07-20T07:55:21;93687.78;;;27.33;53.66
55468;BME280;41332;42.702;23.200;2023-07-20T07:57:47;93687.56;;;27.40;54.40
55468;BME280;41332;42.702;23.200;2023-07-20T08:00:13;93706.50;;;27.50;53.56
55468;BME280;41332;42.702;23.200;2023-07-20T08:02:43;93722.41;;;27.70;54.46
55468;BME280;41332;42.702;23.200;2023-07-20T08:05:09;93725.38;;;27.72;53.03
55468;BME280;41332;42.702;23.200;2023-07-20T08:07:35;93727.91;;;27.66;52.99
55468;BME280;41332;42.702;23.200;2023-07-20T08:10:00;93731.91;;;27.39;50.73
55468;BME280;41332;42.702;23.200;2023-07-20T08:12:26;93730.28;;;27.29;50.47
55468;BME280;41332;42.702;23.200;2023-07-20T08:14:52;93734.78;;;26.97;49.12
55468;BME280;41332;42.702;23.200;2023-07-20T08:17:17;93737.38;;;27.01;49.05
55468;BME280;41332;42.702;23.200;2023-07-20T08:19:43;93730.91;;;26.98;49.83
55468;BME280;41332;42.702;23.200;2023-07-20T08:22:09;93722.06;;;27.10;48.92
55468;BME280;41332;42.702;23.200;2023-07-20T08:24:38;93716.03;;;27.06;49.69
55468;BME280;41332;42.702;23.200;2023-07-20T08:27:04;93715.28;;;27.41;51.01
55468;BME280;41332;42.702;23.200;2023-07-20T08:29:29;93731.72;;;27.56;48.40
55468;BME280;41332;42.702;23.200;2023-07-20T08:31:54;93732.03;;;27.58;47.58
55468;BME280;41332;42.702;23.200;2023-07-20T08:34:20;93734.09;;;27.54;48.20
55468;BME280;41332;42.702;23.200;2023-07-20T08:36:45;93733.41;;;27.62;48.04
55468;BME280;41332;42.702;23.200;2023-07-20T08:39:11;93733.31;;;27.66;48.21
55468;BME280;41332;42.702;23.200;2023-07-20T08:41:36;93737.25;;;27.74;45.68
55468;BME280;41332;42.702;23.200;2023-07-20T08:44:05;93734.72;;;27.58;46.21
55468;BME280;41332;42.702;23.200;2023-07-20T08:46:31;93732.59;;;27.75;46.07
55468;BME280;41332;42.702;23.200;2023-07-20T08:48:57;93729.19;;;27.84;46.99
55468;BME280;41332;42.702;23.200;2023-07-20T08:51:23;93735.03;;;28.04;47.23
55468;BME280;41332;42.702;23.200;2023-07-20T08:53:50;93725.00;;;28.36;45.44
55468;BME280;41332;42.702;23.200;2023-07-20T08:56:18;93724.91;;;28.49;45.90
55468;BME280;41332;42.702;23.200;2023-07-20T08:58:45;93718.78;;;28.58;45.79
55468;BME280;41332;42.702;23.200;2023-07-20T09:01:11;93716.63;;;28.43;43.68
55468;BME280;41332;42.702;23.200;2023-07-20T09:03:36;93714.13;;;28.18;43.33
55468;BME280;41332;42.702;23.200;2023-07-20T09:06:05;93727.00;;;28.13;43.33
55468;BME280;41332;42.702;23.200;2023-07-20T09:08:31;93727.25;;;28.38;43.76
55468;BME280;41332;42.702;23.200;2023-07-20T09:10:57;93727.38;;;28.66;44.37
55468;BME280;41332;42.702;23.200;2023-07-20T09:13:25;93719.59;;;28.77;47.61
55468;BME280;41332;42.702;23.200;2023-07-20T09:15:54;93714.09;;;28.99;44.63
55468;BME280;41332;42.702;23.200;2023-07-20T09:18:27;93714.41;;;29.20;43.26
55468;BME280;41332;42.702;23.200;2023-07-20T09:20:57;93703.44;;;29.23;43.15
55468;BME280;41332;42.702;23.200;2023-07-20T09:23:37;93708.09;;;29.04;42.30
55468;BME280;41332;42.702;23.200;2023-07-20T09:26:13;93708.56;;;29.21;44.03
55468;BME280;41332;42.702;23.200;2023-07-20T09:28:47;93709.91;;;29.26;43.51
55468;BME280;41332;42.702;23.200;2023-07-20T09:31:20;93711.75;;;29.38;42.29
55468;BME280;41332;42.702;23.200;2023-07-20T09:33:47;93715.63;;;29.47;43.13
55468;BME280;41332;42.702;23.200;2023-07-20T09:36:12;93713.69;;;29.38;41.14
55468;BME280;41332;42.702;23.200;2023-07-20T09:38:40;93710.38;;;29.43;41.13
55468;BME280;41332;42.702;23.200;2023-07-20T09:41:06;93707.50;;;29.56;41.88
55468;BME280;41332;42.702;23.200;2023-07-20T09:43:34;93711.69;;;29.85;42.06
55468;BME280;41332;42.702;23.200;2023-07-20T09:45:59;93702.66;;;29.97;39.34
55468;BME280;41332;42.702;23.200;2023-07-20T09:48:25;93689.44;;;29.99;39.65
55468;BME280;41332;42.702;23.200;2023-07-20T09:50:54;93679.22;;;29.85;37.49
55468;BME280;41332;42.702;23.200;2023-07-20T09:53:19;93663.19;;;29.63;38.71
55468;BME280;41332;42.702;23.200;2023-07-20T09:55:46;93660.03;;;29.64;39.91
55468;BME280;41332;42.702;23.200;2023-07-20T09:58:13;93672.97;;;29.32;38.96
55468;BME280;41332;42.702;23.200;2023-07-20T10:00:40;93667.41;;;29.45;40.83
55468;BME280;41332;42.702;23.200;2023-07-20T10:03:06;93673.13;;;29.47;39.07
55468;BME280;41332;42.702;23.200;2023-07-20T10:05:43;93675.81;;;29.38;42.04
55468;BME280;41332;42.702;23.200;2023-07-20T10:08:12;93673.91;;;29.29;40.76
55468;BME280;41332;42.702;23.200;2023-07-20T10:10:40;93678.22;;;29.26;40.20
55468;BME280;41332;42.702;23.200;2023-07-20T10:13:10;93679.72;;;29.27;41.27
55468;BME280;41332;42.702;23.200;2023-07-20T10:15:44;93690.56;;;29.37;41.64
55468;BME280;41332;42.702;23.200;2023-07-20T10:18:31;93690.25;;;29.35;40.11
55468;BME280;41332;42.702;23.200;2023-07-20T10:21:00;93689.19;;;29.23;38.76
55468;BME280;41332;42.702;23.200;2023-07-20T10:23:31;93679.31;;;29.29;38.54
55468;BME280;41332;42.702;23.200;2023-07-20T10:25:57;93662.03;;;29.36;39.40
55468;BME280;41332;42.702;23.200;2023-07-20T10:28:24;93665.19;;;29.34;39.64
55468;BME280;41332;42.702;23.200;2023-07-20T10:30:50;93664.09;;;29.04;41.96
55468;BME280;41332;42.702;23.200;2023-07-20T10:33:17;93658.09;;;29.18;41.62
55468;BME280;41332;42.702;23.200;2023-07-20T10:36:02;93673.56;;;29.18;41.81
55468;BME280;41332;42.702;23.200;2023-07-20T10:41:18;93567.34;;;28.43;43.98
55468;BME280;41332;42.702;23.200;2023-07-20T10:43:44;93583.56;;;28.61;47.05
55468;BME280;41332;42.702;23.200;2023-07-20T10:46:11;93640.50;;;28.76;49.48
55468;BME280;41332;42.702;23.200;2023-07-20T10:49:04;93640.97;;;28.75;49.20
55468;BME280;41332;42.702;23.200;2023-07-20T10:51:30;93622.78;;;28.85;50.95
55468;BME280;41332;42.702;23.200;2023-07-20T10:54:08;93610.94;;;28.82;48.20
55468;BME280;41332;42.702;23.200;2023-07-20T10:56:33;93597.38;;;28.64;46.11
55468;BME280;41332;42.702;23.200;2023-07-20T10:59:00;93607.34;;;28.76;47.30
55468;BME280;41332;42.702;23.200;2023-07-20T11:01:29;93606.28;;;28.73;42.00
55468;BME280;41332;42.702;23.200;2023-07-20T11:03:58;93600.25;;;28.69;44.79
55468;BME280;41332;42.702;23.200;2023-07-20T11:09:15;93607.03;;;28.83;43.31
55468;BME280;41332;42.702;23.200;2023-07-20T11:11:46;93591.59;;;28.93;44.90
55468;BME280;41332;42.702;23.200;2023-07-20T11:14:23;93587.97;;;29.05;46.63
55468;BME280;41332;42.702;23.200;2023-07-20T11:16:49;93588.41;;;29.13;46.43
55468;BME280;41332;42.702;23.200;2023-07-20T11:19:24;93585.25;;;29.24;45.56
55468;BME280;41332;42.702;23.200;2023-07-20T11:21:54;93590.94;;;29.17;44.49
55468;BME280;41332;42.702;23.200;2023-07-20T11:24:20;93581.50;;;29.12;44.77
55468;BME280;41332;42.702;23.200;2023-07-20T11:26:48;93581.19;;;29.10;45.56
55468;BME280;41332;42.702;23.200;2023-07-20T11:29:14;93577.28;;;29.20;45.27
55468;BME280;41332;42.702;23.200;2023-07-20T11:31:41;93575.63;;;29.32;46.54
55468;BME280;41332;42.702;23.200;2023-07-20T11:34:11;93575.03;;;29.37;42.63
55468;BME280;41332;42.702;23.200;2023-07-20T11:36:38;93568.25;;;29.23;43.36
55468;BME280;41332;42.702;23.200;2023-07-20T11:39:03;93567.97;;;29.21;46.19
55468;BME280;41332;42.702;23.200;2023-07-20T11:41:30;93566.28;;;29.52;45.60
55468;BME280;41332;42.702;23.200;2023-07-20T11:43:56;93559.72;;;29.77;43.79
55468;BME280;41332;42.702;23.200;2023-07-20T11:46:22;93563.53;;;29.70;38.22
55468;BME280;41332;42.702;23.200;2023-07-20T11:48:47;93547.25;;;29.80;38.33
55468;BME280;41332;42.702;23.200;2023-07-20T11:51:14;93541.84;;;29.80;38.45
55468;BME280;41332;42.702;23.200;2023-07-20T11:53:40;93551.44;;;29.90;40.28
55468;BME280;41332;42.702;23.200;2023-07-20T11:56:06;93537.56;;;29.97;40.79
55468;BME280;41332;42.702;23.200;2023-07-20T11:58:31;93544.25;;;30.11;40.39
55468;BME280;41332;42.702;23.200;2023-07-20T12:00:57;93540.16;;;30.16;39.60
55468;BME280;41332;42.702;23.200;2023-07-20T12:03:22;93530.31;;;30.28;40.98
55468;BME280;41332;42.702;23.200;2023-07-20T12:05:48;93525.41;;;30.41;40.48
55468;BME280;41332;42.702;23.200;2023-07-20T12:08:15;93519.06;;;30.44;38.85
55468;BME280;41332;42.702;23.200;2023-07-20T12:10:41;93523.44;;;30.41;37.24
55468;BME280;41332;42.702;23.200;2023-07-20T12:13:09;93525.34;;;30.50;38.99
55468;BME280;41332;42.702;23.200;2023-07-20T12:15:35;93521.19;;;30.64;37.28
55468;BME280;41332;42.702;23.200;2023-07-20T12:18:05;93519.59;;;30.57;37.76
55468;BME280;41332;42.702;23.200;2023-07-20T12:20:36;93518.00;;;30.51;31.41
55468;BME280;41332;42.702;23.200;2023-07-20T12:23:12;93522.38;;;30.48;31.95
55468;BME280;41332;42.702;23.200;2023-07-20T12:25:38;93524.75;;;30.46;32.92
55468;BME280;41332;42.702;23.200;2023-07-20T12:28:08;93520.72;;;30.51;34.15
55468;BME280;41332;42.702;23.200;2023-07-20T12:30:34;93515.78;;;30.64;34.13
55468;BME280;41332;42.702;23.200;2023-07-20T12:32:59;93519.81;;;30.69;31.59
55468;BME280;41332;42.702;23.200;2023-07-20T12:35:25;93513.06;;;30.64;31.93
55468;BME280;41332;42.702;23.200;2023-07-20T12:37:50;93508.38;;;30.65;35.20
55468;BME280;41332;42.702;23.200;2023-07-20T12:40:17;93501.50;;;30.79;35.08
55468;BME280;41332;42.702;23.200;2023-07-20T12:42:42;93504.38;;;30.75;35.03
55468;BME280;41332;42.702;23.200;2023-07-20T12:45:08;93510.38;;;30.79;33.51
55468;BME280;41332;42.702;23.200;2023-07-20T12:47:33;93504.50;;;30.81;34.57
55468;BME280;41332;42.702;23.200;2023-07-20T12:49:59;93496.75;;;30.88;34.06
55468;BME280;41332;42.702;23.200;2023-07-20T12:52:25;93489.91;;;30.78;33.96
55468;BME280;41332;42.702;23.200;2023-07-20T12:54:50;93495.34;;;30.78;34.41
55468;BME280;41332;42.702;23.200;2023-07-20T12:57:16;93491.97;;;30.83;36.11
55468;BME280;41332;42.702;23.200;2023-07-20T12:59:42;93494.31;;;30.90;37.03
55468;BME280;41332;42.702;23.200;2023-07-20T13:02:07;93490.22;;;30.95;34.42